sensor_id;sensor_type;location;lat;lon;timestamp;pressure;altitude;pressure_sealevel;temperature;humidity
21594;BME280;10959;51.328;7.322;2024-01-15T00:01:49;97566.41;;;1.36;78.39
21594;BME280;10959;51.328;7.322;2024-01-15T00:04:17;97556.81;;;1.35;78.02
21594;BME280;10959;51.328;7.322;2024-01-15T00:06:43;97551.13;;;1.32;78.93
21594;BME280;10959;51.328;7.322;2024-01-15T00:09:10;97554.53;;;1.39;78.86
21594;BME280;10959;51.328;7.322;2024-01-15T00:11:36;97545.84;;;1.43;78.19
21594;BME280;10959;51.328;7.322;2024-01-15T00:14:03;97545.03;;;1.43;78.34
21594;BME280;10959;51.328;7.322;2024-01-15T00:16:29;97539.78;;;1.36;78.67
21594;BME280;10959;51.328;7.322;2024-01-15T00:18:55;97538.25;;;1.29;79.22
21594;BME280;10959;51.328;7.322;2024-01-15T00:21:23;97534.84;;;1.22;78.75
21594;BME280;10959;51.328;7.322;2024-01-15T00:23:49;97537.06;;;1.25;79.06
21594;BME280;10959;51.328;7.322;2024-01-15T00:26:16;97539.44;;;1.33;79.02
21594;BME280;10959;51.328;7.322;2024-01-15T00:28:42;97532.47;;;1.32;78.51
21594;BME280;10959;51.328;7.322;2024-01-15T00:31:09;97536.34;;;1.36;78.73
21594;BME280;10959;51.328;7.322;2024-01-15T00:33:35;97525.22;;;1.39;78.89
21594;BME280;10959;51.328;7.322;2024-01-15T00:36:02;97520.34;;;1.36;78.78
21594;BME280;10959;51.328;7.322;2024-01-15T00:38:30;97514.34;;;1.40;78.99
21594;BME280;10959;51.328;7.322;2024-01-15T00:40:57;97509.59;;;1.42;79.29
21594;BME280;10959;51.328;7.322;2024-01-15T00:43:23;97510.31;;;1.49;79.02
21594;BME280;10959;51.328;7.322;2024-01-15T00:45:49;97509.88;;;1.52;78.45
21594;BME280;10959;51.328;7.322;2024-01-15T00:48:16;97516.38;;;1.56;78.95
21594;BME280;10959;51.328;7.322;2024-01-15T00:50:42;97519.13;;;1.50;78.58
21594;BME280;10959;51.328;7.322;2024-01-15T00:53:09;97522.25;;;1.47;78.49
21594;BME280;10959;51.328;7.322;2024-01-15T00:55:36;97522.69;;;1.44;78.71
21594;BME280;10959;51.328;7.322;2024-01-15T00:58:03;97516.63;;;1.37;78.89
21594;BME280;10959;51.328;7.322;2024-01-15T01:00:30;97516.53;;;1.43;79.23
21594;BME280;10959;51.328;7.322;2024-01-15T01:02:56;97513.88;;;1.43;79.05
21594;BME280;10959;51.328;7.322;2024-01-15T01:05:22;97520.59;;;1.46;78.59
21594;BME280;10959;51.328;7.322;2024-01-15T01:07:49;97516.91;;;1.47;78.68
21594;BME280;10959;51.328;7.322;2024-01-15T01:10:15;97514.34;;;1.40;78.75
21594;BME280;10959;51.328;7.322;2024-01-15T01:12:43;97512.84;;;1.44;78.79
21594;BME280;10959;51.328;7.322;2024-01-15T01:15:09;97501.38;;;1.44;78.72
21594;BME280;10959;51.328;7.322;2024-01-15T01:17:36;97506.25;;;1.47;78.48
21594;BME280;10959;51.328;7.322;2024-01-15T01:20:03;97503.81;;;1.45;78.79
21594;BME280;10959;51.328;7.322;2024-01-15T01:22:31;97508.78;;;1.42;78.71
21594;BME280;10959;51.328;7.322;2024-01-15T01:24:57;97501.84;;;1.41;78.53
21594;BME280;10959;51.328;7.322;2024-01-15T01:27:24;97501.50;;;1.49;79.11
21594;BME280;10959;51.328;7.322;2024-01-15T01:29:52;97507.00;;;1.54;78.74
21594;BME280;10959;51.328;7.322;2024-01-15T01:32:19;97497.94;;;1.55;79.07
21594;BME280;10959;51.328;7.322;2024-01-15T01:34:45;97498.19;;;1.53;78.69
21594;BME280;10959;51.328;7.322;2024-01-15T01:37:12;97500.97;;;1.58;78.54
21594;BME280;10959;51.328;7.322;2024-01-15T01:39:39;97509.19;;;1.57;78.47
21594;BME280;10959;51.328;7.322;2024-01-15T01:42:05;97503.81;;;1.45;78.17
21594;BME280;10959;51.328;7.322;2024-01-15T01:44:32;97512.81;;;1.33;79.46
21594;BME280;10959;51.328;7.322;2024-01-15T01:47:00;97511.75;;;1.34;79.75
21594;BME280;10959;51.328;7.322;2024-01-15T01:49:28;97508.06;;;1.35;79.77
21594;BME280;10959;51.328;7.322;2024-01-15T01:51:56;97503.47;;;1.42;78.95
21594;BME280;10959;51.328;7.322;2024-01-15T01:54:24;97509.38;;;1.44;79.27
21594;BME280;10959;51.328;7.322;2024-01-15T01:56:52;97508.19;;;1.40;78.77
21594;BME280;10959;51.328;7.322;2024-01-15T01:59:18;97509.81;;;1.41;79.20
21594;BME280;10959;51.328;7.322;2024-01-15T02:01:45;97504.03;;;1.44;79.16
21594;BME280;10959;51.328;7.322;2024-01-15T02:04:13;97498.16;;;1.42;79.39
21594;BME280;10959;51.328;7.322;2024-01-15T02:06:40;97507.66;;;1.49;79.25
21594;BME280;10959;51.328;7.322;2024-01-15T02:09:07;97504.91;;;1.56;79.21
21594;BME280;10959;51.328;7.322;2024-01-15T02:11:35;97507.31;;;1.57;78.88
21594;BME280;10959;51.328;7.322;2024-01-15T02:14:01;97508.97;;;1.58;78.97
21594;BME280;10959;51.328;7.322;2024-01-15T02:16:28;97516.75;;;1.60;79.30
21594;BME280;10959;51.328;7.322;2024-01-15T02:18:54;97525.03;;;1.52;79.29
21594;BME280;10959;51.328;7.322;2024-01-15T02:21:22;97520.03;;;1.44;78.70
21594;BME280;10959;51.328;7.322;2024-01-15T02:23:49;97512.78;;;1.51;79.66
21594;BME280;10959;51.328;7.322;2024-01-15T02:26:16;97524.22;;;1.51;79.35
21594;BME280;10959;51.328;7.322;2024-01-15T02:28:43;97526.31;;;1.49;79.15
21594;BME280;10959;51.328;7.322;2024-01-15T02:31:09;97515.06;;;1.47;79.27
21594;BME280;10959;51.328;7.322;2024-01-15T02:33:36;97519.69;;;1.52;79.00
21594;BME280;10959;51.328;7.322;2024-01-15T02:36:03;97523.56;;;1.56;79.31
21594;BME280;10959;51.328;7.322;2024-01-15T02:38:29;97520.75;;;1.51;79.28
21594;BME280;10959;51.328;7.322;2024-01-15T02:40:57;97515.56;;;1.56;78.78
21594;BME280;10959;51.328;7.322;2024-01-15T02:43:23;97515.47;;;1.62;78.78
21594;BME280;10959;51.328;7.322;2024-01-15T02:45:50;97514.56;;;1.69;78.65
21594;BME280;10959;51.328;7.322;2024-01-15T02:48:16;97516.63;;;1.66;78.52
21594;BME280;10959;51.328;7.322;2024-01-15T02:50:43;97514.28;;;1.58;78.38
21594;BME280;10959;51.328;7.322;2024-01-15T02:53:09;97508.50;;;1.61;79.26
21594;BME280;10959;51.328;7.322;2024-01-15T02:55:35;97514.97;;;1.54;79.30
21594;BME280;10959;51.328;7.322;2024-01-15T02:58:03;97514.28;;;1.58;79.31
21594;BME280;10959;51.328;7.322;2024-01-15T03:00:30;97508.50;;;1.61;78.76
21594;BME280;10959;51.328;7.322;2024-01-15T03:02:56;97510.97;;;1.63;79.36
21594;BME280;10959;51.328;7.322;2024-01-15T03:05:23;97510.16;;;1.62;78.72
21594;BME280;10959;51.328;7.322;2024-01-15T03:07:49;97512.00;;;1.62;79.25
21594;BME280;10959;51.328;7.322;2024-01-15T03:10:16;97508.06;;;1.64;78.46
21594;BME280;10959;51.328;7.322;2024-01-15T03:12:42;97511.75;;;1.63;78.49
21594;BME280;10959;51.328;7.322;2024-01-15T03:15:10;97514.28;;;1.58;78.31
21594;BME280;10959;51.328;7.322;2024-01-15T03:17:36;97507.44;;;1.51;78.96
21594;BME280;10959;51.328;7.322;2024-01-15T03:20:04;97511.63;;;1.58;79.02
21594;BME280;10959;51.328;7.322;2024-01-15T03:22:30;97513.09;;;1.54;79.07
21594;BME280;10959;51.328;7.322;2024-01-15T03:24:57;97508.16;;;1.58;79.12
21594;BME280;10959;51.328;7.322;2024-01-15T03:27:24;97511.16;;;1.61;78.52
21594;BME280;10959;51.328;7.322;2024-01-15T03:29:51;97512.13;;;1.67;79.11
21594;BME280;10959;51.328;7.322;2024-01-15T03:32:19;97510.25;;;1.67;78.21
21594;BME280;10959;51.328;7.322;2024-01-15T03:34:45;97513.16;;;1.66;78.45
21594;BME280;10959;51.328;7.322;2024-01-15T03:37:12;97507.25;;;1.64;78.15
21594;BME280;10959;51.328;7.322;2024-01-15T03:39:39;97511.75;;;1.63;78.25
21594;BME280;10959;51.328;7.322;2024-01-15T03:42:06;97519.97;;;1.62;78.49
21594;BME280;10959;51.328;7.322;2024-01-15T03:44:32;97504.31;;;1.54;78.74
21594;BME280;10959;51.328;7.322;2024-01-15T03:46:59;97501.22;;;1.57;78.86
21594;BME280;10959;51.328;7.322;2024-01-15T03:49:27;97501.91;;;1.64;78.57
21594;BME280;10959;51.328;7.322;2024-01-15T03:51:53;97493.78;;;1.59;78.87
21594;BME280;10959;51.328;7.322;2024-01-15T03:54:20;97490.09;;;1.60;78.45
21594;BME280;10959;51.328;7.322;2024-01-15T03:56:46;97497.03;;;1.61;78.77
21594;BME280;10959;51.328;7.322;2024-01-15T03:59:13;97499.56;;;1.56;78.36
21594;BME280;10959;51.328;7.322;2024-01-15T04:01:39;97494.13;;;1.51;78.91
21594;BME280;10959;51.328;7.322;2024-01-15T04:04:05;97500.47;;;1.50;78.99
21594;BME280;10959;51.328;7.322;2024-01-15T04:06:33;97491.47;;;1.51;78.98
21594;BME280;10959;51.328;7.322;2024-01-15T04:09:00;97492.59;;;1.55;78.83
21594;BME280;10959;51.328;7.322;2024-01-15T04:11:26;97507.00;;;1.54;78.54
21594;BME280;10959;51.328;7.322;2024-01-15T04:13:53;97495.88;;;1.57;78.83
21594;BME280;10959;51.328;7.322;2024-01-15T04:16:19;97491.78;;;1.54;79.03
21594;BME280;10959;51.328;7.322;2024-01-15T04:18:46;97492.59;;;1.55;78.94
21594;BME280;10959;51.328;7.322;2024-01-15T04:21:12;97484.94;;;1.47;79.20
21594;BME280;10959;51.328;7.322;2024-01-15T04:23:40;97482.88;;;1.49;79.28
21594;BME280;10959;51.328;7.322;2024-01-15T04:26:06;97477.69;;;1.54;79.25
21594;BME280;10959;51.328;7.322;2024-01-15T04:28:33;97473.38;;;1.53;78.80
21594;BME280;10959;51.328;7.322;2024-01-15T04:30:59;97472.91;;;1.44;79.16
21594;BME280;10959;51.328;7.322;2024-01-15T04:33:26;97470.34;;;1.49;78.73
21594;BME280;10959;51.328;7.322;2024-01-15T04:35:52;97464.38;;;1.54;79.40
21594;BME280;10959;51.328;7.322;2024-01-15T04:38:18;97461.81;;;1.59;79.08
21594;BME280;10959;51.328;7.322;2024-01-15T04:40:46;97460.09;;;1.64;78.38
21594;BME280;10959;51.328;7.322;2024-01-15T04:43:12;97466.25;;;1.65;78.42
21594;BME280;10959;51.328;7.322;2024-01-15T04:45:39;97469.25;;;1.57;78.52
21594;BME280;10959;51.328;7.322;2024-01-15T04:48:05;97456.50;;;1.59;79.17
21594;BME280;10959;51.328;7.322;2024-01-15T04:50:32;97446.19;;;1.62;78.34
21594;BME280;10959;51.328;7.322;2024-01-15T04:52:58;97449.31;;;1.59;78.41
21594;BME280;10959;51.328;7.322;2024-01-15T04:55:25;97446.56;;;1.66;78.64
21594;BME280;10959;51.328;7.322;2024-01-15T04:57:52;97450.81;;;1.67;78.71
21594;BME280;10959;51.328;7.322;2024-01-15T05:00:19;97450.38;;;1.70;78.34
21594;BME280;10959;51.328;7.322;2024-01-15T05:02:45;97453.50;;;1.67;78.21
21594;BME280;10959;51.328;7.322;2024-01-15T05:05:12;97445.94;;;1.64;78.98
21594;BME280;10959;51.328;7.322;2024-01-15T05:07:38;97444.00;;;1.71;78.73
21594;BME280;10959;51.328;7.322;2024-01-15T05:10:06;97435.78;;;1.73;78.33
21594;BME280;10959;51.328;7.322;2024-01-15T05:12:33;97441.34;;;1.71;77.99
21594;BME280;10959;51.328;7.322;2024-01-15T05:15:01;97436.00;;;1.71;78.26
21594;BME280;10959;51.328;7.322;2024-01-15T05:17:27;97439.84;;;1.75;78.45
21594;BME280;10959;51.328;7.322;2024-01-15T05:19:54;97442.97;;;1.72;78.71
21594;BME280;10959;51.328;7.322;2024-01-15T05:22:20;97443.06;;;1.65;78.37
21594;BME280;10959;51.328;7.322;2024-01-15T05:24:46;97435.53;;;1.62;78.51
21594;BME280;10959;51.328;7.322;2024-01-15T05:27:13;97443.91;;;1.66;78.97
21594;BME280;10959;51.328;7.322;2024-01-15T05:29:40;97432.41;;;1.65;78.67
21594;BME280;10959;51.328;7.322;2024-01-15T05:32:07;97427.66;;;1.67;78.63
21594;BME280;10959;51.328;7.322;2024-01-15T05:34:34;97444.00;;;1.71;78.70
21594;BME280;10959;51.328;7.322;2024-01-15T05:37:00;97437.88;;;1.71;78.84
21594;BME280;10959;51.328;7.322;2024-01-15T05:39:27;97427.31;;;1.64;78.28
21594;BME280;10959;51.328;7.322;2024-01-15T05:41:53;97430.78;;;1.64;78.72
21594;BME280;10959;51.328;7.322;2024-01-15T05:44:19;97425.25;;;1.66;78.97
21594;BME280;10959;51.328;7.322;2024-01-15T05:46:46;97417.81;;;1.68;78.45
21594;BME280;10959;51.328;7.322;2024-01-15T05:49:14;97414.22;;;1.62;78.24
21594;BME280;10959;51.328;7.322;2024-01-15T05:51:40;97420.38;;;1.63;78.51
21594;BME280;10959;51.328;7.322;2024-01-15T05:54:06;97413.88;;;1.59;78.58
21594;BME280;10959;51.328;7.322;2024-01-15T05:56:33;97414.31;;;1.56;78.27
21594;BME280;10959;51.328;7.322;2024-01-15T05:58:59;97426.25;;;1.53;79.23
21594;BME280;10959;51.328;7.322;2024-01-15T06:01:26;97415.34;;;1.55;78.73
21594;BME280;10959;51.328;7.322;2024-01-15T06:03:52;97421.75;;;1.54;78.53
21594;BME280;10959;51.328;7.322;2024-01-15T06:06:20;97415.16;;;1.56;79.08
21594;BME280;10959;51.328;7.322;2024-01-15T06:08:46;97418.94;;;1.60;78.96
21594;BME280;10959;51.328;7.322;2024-01-15T06:11:13;97417.72;;;1.63;78.88
21594;BME280;10959;51.328;7.322;2024-01-15T06:13:39;97413.53;;;1.67;78.92
21594;BME280;10959;51.328;7.322;2024-01-15T06:16:13;97413.78;;;1.65;78.20
21594;BME280;10959;51.328;7.322;2024-01-15T06:18:39;97407.97;;;1.69;78.77
21594;BME280;10959;51.328;7.322;2024-01-15T06:21:05;97402.88;;;1.67;78.61
21594;BME280;10959;51.328;7.322;2024-01-15T06:23:33;97400.66;;;1.64;78.52
21594;BME280;10959;51.328;7.322;2024-01-15T06:26:00;97405.78;;;1.65;78.65
21594;BME280;10959;51.328;7.322;2024-01-15T06:28:28;97401.84;;;1.68;78.75
21594;BME280;10959;51.328;7.322;2024-01-15T06:30:55;97400.09;;;1.74;78.87
21594;BME280;10959;51.328;7.322;2024-01-15T06:33:21;97407.41;;;1.78;78.68
21594;BME280;10959;51.328;7.322;2024-01-15T06:35:48;97399.88;;;1.75;78.08
21594;BME280;10959;51.328;7.322;2024-01-15T06:38:14;97398.13;;;1.69;78.78
21594;BME280;10959;51.328;7.322;2024-01-15T06:40:42;97392.09;;;1.74;78.70
21594;BME280;10959;51.328;7.322;2024-01-15T06:43:10;97400.34;;;1.72;78.27
21594;BME280;10959;51.328;7.322;2024-01-15T06:45:37;97399.75;;;1.70;78.63
21594;BME280;10959;51.328;7.322;2024-01-15T06:48:04;97392.09;;;1.62;78.80
21594;BME280;10959;51.328;7.322;2024-01-15T06:50:29;97399.50;;;1.60;79.41
21594;BME280;10959;51.328;7.322;2024-01-15T06:52:56;97395.78;;;1.61;78.74
21594;BME280;10959;51.328;7.322;2024-01-15T06:55:22;97385.13;;;1.61;79.42
21594;BME280;10959;51.328;7.322;2024-01-15T06:57:50;97392.09;;;1.62;79.04
21594;BME280;10959;51.328;7.322;2024-01-15T07:00:17;97399.50;;;1.60;78.81
21594;BME280;10959;51.328;7.322;2024-01-15T07:02:44;97398.56;;;1.54;79.46
21594;BME280;10959;51.328;7.322;2024-01-15T07:05:11;97398.69;;;1.59;79.46
21594;BME280;10959;51.328;7.322;2024-01-15T07:07:37;97403.69;;;1.67;79.39
21594;BME280;10959;51.328;7.322;2024-01-15T07:10:05;97408.19;;;1.67;78.74
21594;BME280;10959;51.328;7.322;2024-01-15T07:12:32;97405.53;;;1.67;79.05
21594;BME280;10959;51.328;7.322;2024-01-15T07:15:00;97398.00;;;1.64;79.44
21594;BME280;10959;51.328;7.322;2024-01-15T07:17:27;97425.91;;;1.50;79.64
21594;BME280;10959;51.328;7.322;2024-01-15T07:19:53;97398.31;;;1.44;79.37
21594;BME280;10959;51.328;7.322;2024-01-15T07:22:20;97402.59;;;1.45;79.82
21594;BME280;10959;51.328;7.322;2024-01-15T07:24:46;97401.09;;;1.49;80.12
21594;BME280;10959;51.328;7.322;2024-01-15T07:27:12;97398.78;;;1.53;79.29
21594;BME280;10959;51.328;7.322;2024-01-15T07:29:39;97398.69;;;1.59;79.64
21594;BME280;10959;51.328;7.322;2024-01-15T07:32:06;97403.22;;;1.59;79.33
21594;BME280;10959;51.328;7.322;2024-01-15T07:34:33;97404.94;;;1.53;78.99
21594;BME280;10959;51.328;7.322;2024-01-15T07:37:00;97396.94;;;1.42;80.05
21594;BME280;10959;51.328;7.322;2024-01-15T07:39:26;97394.84;;;1.44;80.10
21594;BME280;10959;51.328;7.322;2024-01-15T07:41:54;97399.81;;;1.40;79.79
21594;BME280;10959;51.328;7.322;2024-01-15T07:44:20;97395.66;;;1.44;79.45
21594;BME280;10959;51.328;7.322;2024-01-15T07:46:47;97388.59;;;1.50;79.49
21594;BME280;10959;51.328;7.322;2024-01-15T07:49:14;97389.06;;;1.58;79.61
21594;BME280;10959;51.328;7.322;2024-01-15T07:51:42;97400.66;;;1.64;79.26
21594;BME280;10959;51.328;7.322;2024-01-15T07:54:09;97396.50;;;1.68;79.42
21594;BME280;10959;51.328;7.322;2024-01-15T07:56:55;97397.78;;;1.65;78.79
21594;BME280;10959;51.328;7.322;2024-01-15T07:59:22;97397.88;;;1.59;78.73
21594;BME280;10959;51.328;7.322;2024-01-15T08:01:48;97392.56;;;1.59;79.03
21594;BME280;10959;51.328;7.322;2024-01-15T08:04:16;97400.34;;;1.72;79.41
21594;BME280;10959;51.328;7.322;2024-01-15T08:06:43;97400.00;;;1.69;78.81
21594;BME280;10959;51.328;7.322;2024-01-15T08:09:10;97397.78;;;1.65;78.95
21594;BME280;10959;51.328;7.322;2024-01-15T08:11:39;97396.03;;;1.71;79.59
21594;BME280;10959;51.328;7.322;2024-01-15T08:14:06;97385.13;;;1.73;79.21
21594;BME280;10959;51.328;7.322;2024-01-15T08:16:33;97384.47;;;1.77;78.94
21594;BME280;10959;51.328;7.322;2024-01-15T08:18:59;97380.88;;;1.83;78.96
21594;BME280;10959;51.328;7.322;2024-01-15T08:21:27;97381.81;;;1.77;78.27
21594;BME280;10959;51.328;7.322;2024-01-15T08:23:55;97372.16;;;1.76;79.35
21594;BME280;10959;51.328;7.322;2024-01-15T08:26:21;97379.25;;;1.71;79.21
21594;BME280;10959;51.328;7.322;2024-01-15T08:28:48;97379.59;;;1.74;79.08
21594;BME280;10959;51.328;7.322;2024-01-15T08:31:14;97369.97;;;1.73;79.58
21594;BME280;10959;51.328;7.322;2024-01-15T08:33:41;97369.75;;;1.75;79.47
21594;BME280;10959;51.328;7.322;2024-01-15T08:36:07;97373.09;;;1.82;78.73
21594;BME280;10959;51.328;7.322;2024-01-15T08:38:36;97365.00;;;1.88;79.00
21594;BME280;10959;51.328;7.322;2024-01-15T08:41:03;97374.63;;;1.89;79.12
21594;BME280;10959;51.328;7.322;2024-01-15T08:43:29;97367.66;;;1.88;78.69
21594;BME280;10959;51.328;7.322;2024-01-15T08:45:56;97358.97;;;1.93;78.97
21594;BME280;10959;51.328;7.322;2024-01-15T08:48:23;97369.84;;;1.91;78.52
21594;BME280;10959;51.328;7.322;2024-01-15T08:50:52;97370.69;;;1.80;78.81
21594;BME280;10959;51.328;7.322;2024-01-15T08:53:19;97371.72;;;1.79;78.58
21594;BME280;10959;51.328;7.322;2024-01-15T08:55:48;97369.03;;;1.91;78.76
21594;BME280;10959;51.328;7.322;2024-01-15T08:58:14;97386.31;;;1.88;78.83
21594;BME280;10959;51.328;7.322;2024-01-15T09:00:41;97377.50;;;1.88;78.45
21594;BME280;10959;51.328;7.322;2024-01-15T09:03:07;97373.22;;;1.87;78.75
21594;BME280;10959;51.328;7.322;2024-01-15T09:05:34;97378.31;;;1.88;78.48
21594;BME280;10959;51.328;7.322;2024-01-15T09:07:59;97378.22;;;1.72;78.46
21594;BME280;10959;51.328;7.322;2024-01-15T09:10:26;97381.34;;;1.69;79.19
21594;BME280;10959;51.328;7.322;2024-01-15T09:12:54;97379.94;;;1.66;79.31
21594;BME280;10959;51.328;7.322;2024-01-15T09:15:20;97387.94;;;1.66;78.99
21594;BME280;10959;51.328;7.322;2024-01-15T09:17:47;97390.72;;;1.71;79.61
21594;BME280;10959;51.328;7.322;2024-01-15T09:20:13;97386.09;;;1.78;79.04
21594;BME280;10959;51.328;7.322;2024-01-15T09:22:39;97386.41;;;1.82;79.15
21594;BME280;10959;51.328;7.322;2024-01-15T09:25:07;97388.16;;;1.88;79.31
21594;BME280;10959;51.328;7.322;2024-01-15T09:27:34;97398.25;;;1.86;78.99
21594;BME280;10959;51.328;7.322;2024-01-15T09:30:03;97401.72;;;1.75;79.34
21594;BME280;10959;51.328;7.322;2024-01-15T09:32:30;97399.28;;;1.61;79.22
21594;BME280;10959;51.328;7.322;2024-01-15T09:34:56;97410.84;;;1.67;79.34
21594;BME280;10959;51.328;7.322;2024-01-15T09:37:22;97408.44;;;1.54;79.50
21594;BME280;10959;51.328;7.322;2024-01-15T09:39:49;97406.44;;;1.61;79.25
21594;BME280;10959;51.328;7.322;2024-01-15T09:42:16;97408.09;;;1.62;79.03
21594;BME280;10959;51.328;7.322;2024-01-15T09:44:44;97408.19;;;1.67;79.23
21594;BME280;10959;51.328;7.322;2024-01-15T09:47:13;97412.59;;;1.61;79.50
21594;BME280;10959;51.328;7.322;2024-01-15T09:49:41;97415.03;;;1.63;79.32
21594;BME280;10959;51.328;7.322;2024-01-15T09:52:07;97413.97;;;1.64;79.23
21594;BME280;10959;51.328;7.322;2024-01-15T09:54:35;97422.06;;;1.46;79.59
21594;BME280;10959;51.328;7.322;2024-01-15T09:57:04;97422.66;;;1.48;79.61
21594;BME280;10959;51.328;7.322;2024-01-15T09:59:31;97420.09;;;1.53;79.06
21594;BME280;10959;51.328;7.322;2024-01-15T10:01:58;97427.41;;;1.57;79.76
21594;BME280;10959;51.328;7.322;2024-01-15T10:04:27;97425.78;;;1.56;79.03
21594;BME280;10959;51.328;7.322;2024-01-15T10:06:54;97427.53;;;1.51;79.33
21594;BME280;10959;51.328;7.322;2024-01-15T10:09:22;97414.88;;;1.46;79.20
21594;BME280;10959;51.328;7.322;2024-01-15T10:11:49;97415.56;;;1.42;79.06
21594;BME280;10959;51.328;7.322;2024-01-15T10:14:15;97420.56;;;1.50;79.73
21594;BME280;10959;51.328;7.322;2024-01-15T10:16:42;97415.97;;;1.57;79.22
21594;BME280;10959;51.328;7.322;2024-01-15T10:19:09;97409.81;;;1.56;78.67
21594;BME280;10959;51.328;7.322;2024-01-15T10:21:37;97407.25;;;1.50;78.67
21594;BME280;10959;51.328;7.322;2024-01-15T10:24:04;97411.19;;;1.47;79.55
21594;BME280;10959;51.328;7.322;2024-01-15T10:26:31;97412.00;;;1.48;79.02
21594;BME280;10959;51.328;7.322;2024-01-15T10:28:59;97418.72;;;1.50;79.11
21594;BME280;10959;51.328;7.322;2024-01-15T10:31:25;97411.66;;;1.56;79.66
21594;BME280;10959;51.328;7.322;2024-01-15T10:33:52;97417.91;;;1.61;79.36
21594;BME280;10959;51.328;7.322;2024-01-15T10:36:18;97411.78;;;1.73;78.30
21594;BME280;10959;51.328;7.322;2024-01-15T10:38:46;97414.03;;;1.87;78.49
21594;BME280;10959;51.328;7.322;2024-01-15T10:41:13;97417.38;;;1.94;78.68
21594;BME280;10959;51.328;7.322;2024-01-15T10:43:39;97408.81;;;2.04;77.75
21594;BME280;10959;51.328;7.322;2024-01-15T10:46:06;97409.06;;;2.02;77.64
21594;BME280;10959;51.328;7.322;2024-01-15T10:48:33;97406.50;;;2.07;78.23
21594;BME280;10959;51.328;7.322;2024-01-15T10:51:01;97405.44;;;1.97;78.12
21594;BME280;10959;51.328;7.322;2024-01-15T10:53:34;97400.25;;;1.90;77.59
21594;BME280;10959;51.328;7.322;2024-01-15T10:56:04;97409.16;;;1.84;77.85
21594;BME280;10959;51.328;7.322;2024-01-15T10:58:31;97401.38;;;1.83;77.98
21594;BME280;10959;51.328;7.322;2024-01-15T11:01:01;97420.84;;;1.83;77.98
21594;BME280;10959;51.328;7.322;2024-01-15T11:03:28;97415.16;;;1.80;77.57
21594;BME280;10959;51.328;7.322;2024-01-15T11:05:54;97417.00;;;1.67;77.96
21594;BME280;10959;51.328;7.322;2024-01-15T11:08:21;97424.44;;;1.65;78.19
21594;BME280;10959;51.328;7.322;2024-01-15T11:10:50;97432.28;;;1.60;78.33
21594;BME280;10959;51.328;7.322;2024-01-15T11:13:21;97423.34;;;1.55;78.71
21594;BME280;10959;51.328;7.322;2024-01-15T11:15:58;97429.38;;;1.50;78.24
21594;BME280;10959;51.328;7.322;2024-01-15T11:18:27;97417.56;;;1.58;78.11
21594;BME280;10959;51.328;7.322;2024-01-15T11:21:21;97411.41;;;1.57;78.10
21594;BME280;10959;51.328;7.322;2024-01-15T11:23:50;97412.03;;;1.71;78.12
21594;BME280;10959;51.328;7.322;2024-01-15T11:26:36;97417.81;;;1.68;77.56
21594;BME280;10959;51.328;7.322;2024-01-15T11:29:05;97413.06;;;1.70;77.88
21594;BME280;10959;51.328;7.322;2024-01-15T11:31:57;97419.31;;;1.76;77.22
21594;BME280;10959;51.328;7.322;2024-01-15T11:37:58;97427.66;;;1.56;77.98
21594;BME280;10959;51.328;7.322;2024-01-15T11:40:38;97423.50;;;1.60;78.16
21594;BME280;10959;51.328;7.322;2024-01-15T11:43:05;97421.78;;;1.77;77.79
21594;BME280;10959;51.328;7.322;2024-01-15T11:45:35;97423.72;;;1.70;77.50
21594;BME280;10959;51.328;7.322;2024-01-15T11:48:10;97424.78;;;1.69;77.95
21594;BME280;10959;51.328;7.322;2024-01-15T11:50:40;97412.94;;;1.65;77.95
21594;BME280;10959;51.328;7.322;2024-01-15T11:53:17;97420.38;;;1.63;78.24
21594;BME280;10959;51.328;7.322;2024-01-15T11:55:45;97414.59;;;1.66;77.85
21594;BME280;10959;51.328;7.322;2024-01-15T11:58:13;97419.47;;;1.81;78.52
21594;BME280;10959;51.328;7.322;2024-01-15T12:00:44;97406.97;;;1.81;77.87
21594;BME280;10959;51.328;7.322;2024-01-15T12:03:11;97420.84;;;1.95;78.11
21594;BME280;10959;51.328;7.322;2024-01-15T12:05:38;97412.28;;;2.04;77.48
21594;BME280;10959;51.328;7.322;2024-01-15T12:08:04;97415.88;;;1.98;77.71
21594;BME280;10959;51.328;7.322;2024-01-15T12:10:35;97417.38;;;1.94;77.74
21594;BME280;10959;51.328;7.322;2024-01-15T12:13:05;97415.97;;;1.80;77.61
21594;BME280;10959;51.328;7.322;2024-01-15T12:15:32;97420.13;;;1.76;77.41
21594;BME280;10959;51.328;7.322;2024-01-15T12:18:01;97406.97;;;1.81;77.70
21594;BME280;10959;51.328;7.322;2024-01-15T12:20:29;97414.97;;;1.93;78.29
21594;BME280;10959;51.328;7.322;2024-01-15T12:22:56;97407.53;;;1.83;77.56
21594;BME280;10959;51.328;7.322;2024-01-15T12:25:23;97413.66;;;1.72;77.56
21594;BME280;10959;51.328;7.322;2024-01-15T12:27:49;97411.13;;;1.77;77.77
21594;BME280;10959;51.328;7.322;2024-01-15T12:30:16;97420.50;;;1.80;77.91
21594;BME280;10959;51.328;7.322;2024-01-15T12:32:44;97416.78;;;1.69;78.12
21594;BME280;10959;51.328;7.322;2024-01-15T12:35:13;97420.84;;;1.60;78.09
21594;BME280;10959;51.328;7.322;2024-01-15T12:37:40;97423.34;;;1.55;78.07
21594;BME280;10959;51.328;7.322;2024-01-15T12:40:09;97427.06;;;1.54;78.77
21594;BME280;10959;51.328;7.322;2024-01-15T12:42:36;97431.94;;;1.57;78.36
21594;BME280;10959;51.328;7.322;2024-01-15T12:45:03;97430.41;;;1.49;78.51
21594;BME280;10959;51.328;7.322;2024-01-15T12:47:31;97427.84;;;1.54;78.77
21594;BME280;10959;51.328;7.322;2024-01-15T12:49:58;97421.50;;;1.67;78.61
21594;BME280;10959;51.328;7.322;2024-01-15T12:52:28;97418.19;;;1.72;78.85
21594;BME280;10959;51.328;7.322;2024-01-15T12:54:55;97420.50;;;1.91;78.25
21594;BME280;10959;51.328;7.322;2024-01-15T12:57:22;97424.81;;;1.92;77.84
21594;BME280;10959;51.328;7.322;2024-01-15T12:59:49;97427.56;;;1.97;77.37
21594;BME280;10959;51.328;7.322;2024-01-15T13:02:16;97424.69;;;1.87;77.21
21594;BME280;10959;51.328;7.322;2024-01-15T13:04:42;97421.66;;;1.72;78.31
21594;BME280;10959;51.328;7.322;2024-01-15T13:07:09;97433.09;;;1.61;78.44
21594;BME280;10959;51.328;7.322;2024-01-15T13:09:36;97438.88;;;1.58;78.34
21594;BME280;10959;51.328;7.322;2024-01-15T13:12:03;97440.50;;;1.59;78.91
21594;BME280;10959;51.328;7.322;2024-01-15T13:14:31;97443.97;;;1.48;78.88